Time;durP1;ratioP1;P1;durP2;ratioP2;P2;SDS_P1;SDS_P2;PMS_P1;PMS_P2;Temp;Humidity;BMP_temperature;BMP_pressure;BME280_temperature;BME280_humidity;BME280_pressure;Samples;Min_cycle;Max_cycle;Signal;HPM_P1;HPM_P2
2023/08/02 00:01:21;;;;;;;6.55;2.22;;;16.60;93.10;;;;;;5015452;28;20355;-83
2023/08/02 00:03:47;;;;;;;12.70;1.95;;;16.60;93.20;;;;;;5032595;28;20040;-82
2023/08/02 00:06:12;;;;;;;5.45;1.77;;;16.60;93.20;;;;;;5015281;28;20082;-83
2023/08/02 00:08:38;;;;;;;5.70;2.13;;;16.60;93.30;;;;;;5015435;28;20041;-81
2023/08/02 00:11:04;;;;;;;8.27;2.13;;;16.60;93.40;;;;;;5032706;28;20112;-81
2023/08/02 00:13:30;;;;;;;8.65;2.00;;;16.60;93.40;;;;;;5015511;28;20021;-81
2023/08/02 00:15:55;;;;;;;6.63;1.88;;;16.60;93.50;;;;;;5016743;28;20041;-82
2023/08/02 00:18:21;;;;;;;8.60;1.95;;;16.60;93.60;;;;;;5036369;28;20034;-82
2023/08/02 00:20:50;;;;;;;7.38;2.20;;;16.50;93.70;;;;;;5020159;28;20416;-81
2023/08/02 00:23:16;;;;;;;10.15;2.25;;;16.50;93.80;;;;;;5036800;28;20053;-81
2023/08/02 00:25:41;;;;;;;8.88;2.25;;;16.50;93.90;;;;;;5036777;28;20401;-81
2023/08/02 00:28:07;;;;;;;7.40;2.28;;;16.50;93.90;;;;;;5018836;28;20037;-81
2023/08/02 00:30:43;;;;;;;14.85;3.00;;;16.50;94.10;;;;;;5018730;28;20033;-82
2023/08/02 00:33:09;;;;;;;7.68;2.40;;;16.40;94.10;;;;;;5018349;28;20037;-81
2023/08/02 00:35:34;;;;;;;8.90;2.20;;;16.40;94.30;;;;;;5018727;28;20516;-82
2023/08/02 00:38:00;;;;;;;6.00;1.88;;;16.30;94.30;;;;;;5002504;28;20408;-82
2023/08/02 00:40:26;;;;;;;7.70;1.95;;;16.30;94.40;;;;;;5036470;28;20112;-82
2023/08/02 00:42:51;;;;;;;9.30;1.98;;;16.30;94.50;;;;;;5002177;28;20083;-82
2023/08/02 00:45:17;;;;;;;9.45;2.63;;;16.20;94.60;;;;;;5018721;28;20034;-82
2023/08/02 00:47:43;;;;;;;9.50;2.42;;;16.30;94.80;;;;;;5002376;28;20170;-84
2023/08/02 00:50:09;;;;;;;8.80;2.30;;;16.20;94.90;;;;;;4985629;28;20087;-83
2023/08/02 00:52:35;;;;;;;8.23;2.35;;;16.20;95.00;;;;;;5002100;28;20029;-83
2023/08/02 00:55:00;;;;;;;7.80;1.80;;;16.20;95.10;;;;;;5036094;28;20078;-83
2023/08/02 00:57:26;;;;;;;8.40;2.13;;;16.10;95.20;;;;;;5017901;28;20025;-83
2023/08/02 00:59:52;;;;;;;10.57;2.58;;;16.10;95.30;;;;;;5018324;28;20160;-82
2023/08/02 01:02:17;;;;;;;10.27;2.50;;;16.10;95.50;;;;;;5018902;28;20498;-82
2023/08/02 01:04:45;;;;;;;8.48;2.08;;;16.10;95.70;;;;;;4986104;28;20063;-81
2023/08/02 01:07:48;;;;;;;13.05;2.90;;;16.10;95.90;;;;;;5035596;28;20136;-82
2023/08/02 01:10:27;;;;;;;8.82;2.63;;;16.10;96.00;;;;;;5031227;28;20041;-82
2023/08/02 01:12:58;;;;;;;7.97;2.25;;;16.10;96.20;;;;;;5035925;28;20040;-82
2023/08/02 01:15:25;;;;;;;11.30;3.17;;;16.10;96.30;;;;;;5018168;28;20568;-83
2023/08/02 01:17:52;;;;;;;12.45;4.15;;;16.10;96.40;;;;;;5001633;28;20079;-82
2023/08/02 01:20:17;;;;;;;12.10;3.13;;;16.10;96.60;;;;;;5035880;28;20504;-82
2023/08/02 01:22:43;;;;;;;10.32;2.85;;;16.00;96.80;;;;;;5018418;28;20056;-81
2023/08/02 01:25:09;;;;;;;8.43;2.85;;;16.00;96.90;;;;;;5001738;28;20401;-81
2023/08/02 01:27:36;;;;;;;9.35;2.33;;;16.00;97.00;;;;;;5016629;28;20032;-82
2023/08/02 01:30:05;;;;;;;12.27;3.13;;;16.00;97.10;;;;;;5017403;28;20029;-83
2023/08/02 01:32:31;;;;;;;8.90;2.55;;;16.00;97.30;;;;;;5018110;28;20414;-82
2023/08/02 01:34:57;;;;;;;10.60;2.45;;;15.90;97.50;;;;;;5001254;28;20130;-82
2023/08/02 01:37:23;;;;;;;8.05;2.92;;;15.90;97.60;;;;;;5017402;28;20478;-83
2023/08/02 01:39:48;;;;;;;9.88;2.40;;;15.90;97.90;;;;;;5017711;28;20030;-81
2023/08/02 01:42:14;;;;;;;10.00;2.47;;;15.90;98.00;;;;;;5001803;28;20030;-81
2023/08/02 01:44:40;;;;;;;7.72;2.25;;;15.90;98.10;;;;;;5017887;28;20037;-81
2023/08/02 01:47:05;;;;;;;10.60;2.80;;;15.90;98.20;;;;;;5035244;28;20033;-82
2023/08/02 01:49:31;;;;;;;12.52;2.47;;;15.80;98.30;;;;;;5035162;28;20033;-82
2023/08/02 01:51:56;;;;;;;10.35;3.22;;;15.80;98.50;;;;;;4984936;28;20041;-81
2023/08/02 01:54:22;;;;;;;8.02;2.70;;;15.80;98.60;;;;;;5000683;28;20026;-81
2023/08/02 01:56:48;;;;;;;8.38;2.75;;;15.80;98.80;;;;;;5034982;28;20030;-81
2023/08/02 01:59:13;;;;;;;5.88;2.30;;;15.80;99.00;;;;;;5001104;28;20155;-81
2023/08/02 02:01:39;;;;;;;13.77;3.42;;;15.90;99.20;;;;;;5016757;28;20180;-82
2023/08/02 02:04:05;;;;;;;9.93;2.42;;;15.80;99.30;;;;;;5000859;28;20036;-81
2023/08/02 02:06:30;;;;;;;9.50;2.78;;;15.90;99.40;;;;;;5000594;28;20060;-81
2023/08/02 02:08:56;;;;;;;10.10;2.63;;;15.90;99.60;;;;;;5000725;28;20041;-81
2023/08/02 02:11:22;;;;;;;8.23;2.65;;;15.90;99.70;;;;;;5000591;28;20039;-82
2023/08/02 02:13:49;;;;;;;7.80;2.22;;;15.90;99.80;;;;;;5000702;28;20371;-81
2023/08/02 02:16:14;;;;;;;8.68;2.38;;;15.90;99.90;;;;;;5034572;28;20131;-82
2023/08/02 02:18:40;;;;;;;9.32;2.63;;;15.90;99.90;;;;;;5016399;28;20486;-82
2023/08/02 02:21:06;;;;;;;8.60;2.50;;;16.00;99.90;;;;;;5016793;28;20021;-82
2023/08/02 02:23:31;;;;;;;13.68;3.47;;;15.90;99.90;;;;;;5000157;28;20088;-82
2023/08/02 02:25:57;;;;;;;7.40;2.60;;;16.00;99.90;;;;;;5000609;28;20504;-82
2023/08/02 02:28:23;;;;;;;7.57;2.13;;;15.90;99.90;;;;;;5016723;28;20035;-82
2023/08/02 02:30:49;;;;;;;9.20;2.95;;;15.90;99.90;;;;;;5016440;28;20053;-82
2023/08/02 02:33:14;;;;;;;9.95;3.17;;;15.90;99.90;;;;;;4983733;28;20038;-82
2023/08/02 02:35:40;;;;;;;6.65;2.20;;;15.90;99.90;;;;;;5016335;28;20494;-82
2023/08/02 02:38:06;;;;;;;8.30;2.05;;;15.90;99.90;;;;;;4998710;28;20426;-82
2023/08/02 02:40:31;;;;;;;6.72;2.42;;;15.90;99.90;;;;;;5015138;28;20409;-81
2023/08/02 02:42:57;;;;;;;9.32;2.33;;;15.90;99.90;;;;;;5015065;28;20083;-82
2023/08/02 02:45:22;;;;;;;9.40;2.40;;;15.90;99.90;;;;;;5014938;28;20489;-82
2023/08/02 02:47:48;;;;;;;6.05;2.22;;;15.90;99.90;;;;;;4999212;28;20033;-83
2023/08/02 02:50:14;;;;;;;10.40;2.53;;;15.90;99.90;;;;;;5034023;28;20119;-82
2023/08/02 02:52:41;;;;;;;7.72;2.30;;;15.90;99.90;;;;;;5015897;28;20042;-82
2023/08/02 02:55:09;;;;;;;7.35;2.33;;;15.90;99.90;;;;;;5016117;28;20033;-81
2023/08/02 02:57:34;;;;;;;9.52;1.80;;;15.90;99.90;;;;;;5033938;28;20108;-81
2023/08/02 03:00:00;;;;;;;7.22;1.98;;;15.90;99.90;;;;;;5016381;28;20108;-82
2023/08/02 03:02:26;;;;;;;7.60;2.40;;;15.90;99.90;;;;;;4999864;28;20462;-82
2023/08/02 03:04:51;;;;;;;6.55;1.70;;;16.00;99.90;;;;;;5033749;28;20092;-81
2023/08/02 03:07:17;;;;;;;4.57;1.80;;;16.00;99.90;;;;;;5016072;28;20053;-81
2023/08/02 03:09:43;;;;;;;6.60;2.10;;;16.00;99.90;;;;;;5016523;28;20079;-81
2023/08/02 03:12:08;;;;;;;7.65;2.58;;;16.00;99.90;;;;;;5016357;28;20036;-83
2023/08/02 03:14:34;;;;;;;6.30;1.90;;;16.00;99.90;;;;;;5016537;28;20554;-81
2023/08/02 03:17:00;;;;;;;6.90;2.05;;;16.00;99.90;;;;;;4999538;28;20116;-81
2023/08/02 03:19:25;;;;;;;6.43;2.05;;;16.00;99.90;;;;;;5000104;28;20026;-81
2023/08/02 03:21:51;;;;;;;7.07;2.20;;;16.00;99.90;;;;;;5000721;28;20435;-81
2023/08/02 03:24:16;;;;;;;7.18;1.83;;;15.90;99.90;;;;;;5001591;28;20500;-81
2023/08/02 03:26:42;;;;;;;8.40;2.35;;;15.90;99.90;;;;;;5036206;28;20040;-81
2023/08/02 03:29:08;;;;;;;7.22;2.05;;;16.00;99.90;;;;;;5003102;28;20037;-82
2023/08/02 03:31:33;;;;;;;6.78;2.03;;;16.00;99.90;;;;;;5038119;28;20033;-82
2023/08/02 03:33:59;;;;;;;10.93;1.88;;;16.00;99.90;;;;;;5003716;28;20029;-82
2023/08/02 03:36:25;;;;;;;4.75;1.52;;;16.00;99.90;;;;;;5020225;28;20051;-83
2023/08/02 03:38:50;;;;;;;7.28;1.70;;;16.00;99.90;;;;;;5021518;28;20079;-82
2023/08/02 03:41:16;;;;;;;5.25;1.55;;;16.00;99.90;;;;;;5039377;28;20526;-82
2023/08/02 03:43:45;;;;;;;7.25;1.90;;;16.00;99.90;;;;;;5022316;28;20075;-82
2023/08/02 03:46:11;;;;;;;14.82;2.63;;;16.10;99.90;;;;;;5007217;28;20037;-81
2023/08/02 03:48:37;;;;;;;6.53;1.77;;;16.10;99.90;;;;;;5013186;28;20037;-82
2023/08/02 03:51:02;;;;;;;5.78;2.05;;;16.10;99.90;;;;;;5016072;28;20030;-81
2023/08/02 03:53:30;;;;;;;7.32;1.77;;;16.10;99.90;;;;;;5036502;28;20389;-82
2023/08/02 03:55:56;;;;;;;5.50;2.47;;;16.10;99.90;;;;;;5050429;28;20140;-82
2023/08/02 03:58:22;;;;;;;7.75;2.72;;;16.20;99.90;;;;;;5050064;28;20040;-82
2023/08/02 04:00:47;;;;;;;7.07;2.55;;;16.20;99.90;;;;;;5030005;28;20021;-82
2023/08/02 04:03:13;;;;;;;10.38;2.60;;;16.20;99.90;;;;;;5007314;28;20029;-82
2023/08/02 04:05:39;;;;;;;6.22;1.85;;;16.20;99.90;;;;;;5006395;28;20057;-82
2023/08/02 04:08:04;;;;;;;8.07;2.20;;;16.20;99.90;;;;;;5018197;28;20502;-83
2023/08/02 04:10:34;;;;;;;7.10;2.58;;;16.20;99.90;;;;;;5017626;28;20068;-82
2023/08/02 04:12:59;;;;;;;6.78;2.03;;;16.20;99.90;;;;;;5016966;28;20041;-82
2023/08/02 04:15:25;;;;;;;7.25;2.05;;;16.20;99.90;;;;;;5016781;28;20049;-82
2023/08/02 04:17:51;;;;;;;8.50;2.88;;;16.30;99.90;;;;;;5000149;28;20030;-83
2023/08/02 04:20:16;;;;;;;10.68;2.70;;;16.30;99.90;;;;;;5000306;28;20061;-82
2023/08/02 04:22:42;;;;;;;10.85;2.58;;;16.30;99.90;;;;;;4999903;28;20037;-82
2023/08/02 04:25:08;;;;;;;8.48;2.15;;;16.30;99.90;;;;;;5016162;28;20025;-83
2023/08/02 04:27:33;;;;;;;9.48;2.85;;;16.30;99.90;;;;;;5017322;28;20113;-83
2023/08/02 04:29:59;;;;;;;8.48;3.00;;;16.30;99.90;;;;;;4983624;28;20037;-83
2023/08/02 04:32:25;;;;;;;8.65;2.53;;;16.30;99.90;;;;;;4999496;28;20026;-83
2023/08/02 04:34:51;;;;;;;7.10;2.30;;;16.30;99.90;;;;;;5017185;28;20046;-82
2023/08/02 04:37:17;;;;;;;7.63;2.17;;;16.40;99.90;;;;;;4999201;28;20037;-83
2023/08/02 04:39:42;;;;;;;4.55;2.15;;;16.40;99.90;;;;;;4999291;28;20030;-82
2023/08/02 04:42:08;;;;;;;7.40;2.55;;;16.40;99.90;;;;;;5016777;28;20364;-82
2023/08/02 04:44:33;;;;;;;7.60;2.80;;;16.40;99.90;;;;;;4999001;28;20034;-83
2023/08/02 04:46:59;;;;;;;8.02;2.65;;;16.50;99.90;;;;;;4999270;28;20084;-82
2023/08/02 04:49:25;;;;;;;5.75;1.88;;;16.50;99.90;;;;;;4999279;28;20030;-81
2023/08/02 04:51:50;;;;;;;5.93;2.00;;;16.50;99.90;;;;;;5014981;28;20065;-82
2023/08/02 04:54:18;;;;;;;6.15;2.03;;;16.50;99.90;;;;;;4999064;28;20072;-81
2023/08/02 04:56:44;;;;;;;7.15;2.15;;;16.50;99.90;;;;;;5026221;28;20026;-82
2023/08/02 04:59:10;;;;;;;4.47;1.58;;;16.50;99.90;;;;;;5002644;28;20030;-83
2023/08/02 05:01:35;;;;;;;7.10;1.83;;;16.50;99.90;;;;;;5015012;28;20033;-82
2023/08/02 05:04:01;;;;;;;7.20;1.90;;;16.60;99.90;;;;;;5015084;28;20389;-81
2023/08/02 05:06:27;;;;;;;5.43;1.50;;;16.60;99.90;;;;;;5018099;28;20084;-82
2023/08/02 05:08:52;;;;;;;6.05;1.58;;;16.60;99.90;;;;;;5017976;28;20116;-82
2023/08/02 05:11:18;;;;;;;4.18;1.50;;;16.60;99.90;;;;;;5001612;28;20033;-82
2023/08/02 05:13:43;;;;;;;4.53;1.38;;;16.60;99.90;;;;;;5018227;28;20037;-81
2023/08/02 05:16:13;;;;;;;8.65;2.20;;;16.60;99.90;;;;;;5001487;28;20052;-82
2023/08/02 05:18:39;;;;;;;6.78;1.80;;;16.70;99.90;;;;;;5002040;28;20034;-81
2023/08/02 05:21:15;;;;;;;5.22;2.15;;;16.70;99.90;;;;;;5017990;28;20036;-81
2023/08/02 05:23:41;;;;;;;6.55;1.63;;;16.80;99.90;;;;;;5035676;28;20520;-81
2023/08/02 05:26:07;;;;;;;5.47;1.77;;;16.80;99.90;;;;;;5017513;28;20200;-82
2023/08/02 05:28:33;;;;;;;4.90;1.50;;;16.80;99.90;;;;;;5017634;28;20092;-80
2023/08/02 05:30:59;;;;;;;5.35;2.08;;;16.80;99.90;;;;;;4984887;28;20124;-81
2023/08/02 05:33:25;;;;;;;7.43;1.92;;;16.80;99.90;;;;;;5017553;28;20156;-82
2023/08/02 05:35:51;;;;;;;5.13;1.67;;;16.80;99.90;;;;;;5017392;28;20037;-81
2023/08/02 05:38:17;;;;;;;5.22;1.85;;;16.80;99.90;;;;;;5001043;28;20142;-83
2023/08/02 05:40:43;;;;;;;5.30;2.08;;;16.80;99.90;;;;;;5017927;28;20108;-82
2023/08/02 05:43:08;;;;;;;4.72;1.50;;;16.90;99.90;;;;;;5017333;28;20409;-82
2023/08/02 05:45:34;;;;;;;9.52;2.58;;;16.80;99.90;;;;;;5017906;28;20374;-82
2023/08/02 05:48:00;;;;;;;6.88;2.00;;;16.90;99.90;;;;;;5001511;28;20036;-83
2023/08/02 05:50:26;;;;;;;4.65;1.55;;;16.80;99.90;;;;;;5034867;28;20100;-82
2023/08/02 05:52:51;;;;;;;5.80;2.10;;;16.90;99.90;;;;;;4984936;28;20029;-83
2023/08/02 05:55:17;;;;;;;4.97;2.05;;;16.90;99.90;;;;;;5001128;28;20045;-83
2023/08/02 05:57:43;;;;;;;4.22;1.60;;;16.90;99.90;;;;;;4999691;28;20029;-82
2023/08/02 06:00:09;;;;;;;5.72;2.13;;;16.80;99.90;;;;;;5016526;28;20033;-83
2023/08/02 06:02:36;;;;;;;4.85;1.90;;;16.90;99.90;;;;;;5016073;28;20027;-82
2023/08/02 06:05:02;;;;;;;4.88;1.83;;;16.80;99.90;;;;;;5016454;28;20021;-82
2023/08/02 06:07:28;;;;;;;4.82;1.70;;;16.90;99.90;;;;;;5013162;28;20534;-81
2023/08/02 06:09:53;;;;;;;6.78;1.92;;;16.80;99.90;;;;;;5012126;28;20032;-82
2023/08/02 06:12:19;;;;;;;5.10;2.25;;;16.80;99.90;;;;;;5011268;28;20037;-83
2023/08/02 06:14:45;;;;;;;5.80;2.30;;;16.80;99.90;;;;;;4993002;28;20042;-83
2023/08/02 06:17:10;;;;;;;5.72;1.98;;;16.80;99.90;;;;;;4978972;28;20025;-80
2023/08/02 06:19:36;;;;;;;6.65;2.33;;;16.80;99.90;;;;;;5011674;28;20482;-81
2023/08/02 06:22:01;;;;;;;6.55;2.35;;;16.80;99.90;;;;;;5014189;28;20525;-82
2023/08/02 06:24:27;;;;;;;5.68;2.20;;;16.80;99.90;;;;;;4996675;28;20053;-84
2023/08/02 06:26:53;;;;;;;6.07;2.05;;;16.80;99.90;;;;;;4978406;28;20053;-81
2023/08/02 06:29:18;;;;;;;6.13;2.20;;;16.70;99.90;;;;;;5011474;28;20513;-83
2023/08/02 06:31:44;;;;;;;8.27;2.55;;;16.70;99.90;;;;;;5012224;28;20080;-82
2023/08/02 06:34:10;;;;;;;5.80;2.60;;;16.70;99.90;;;;;;5012979;28;20041;-83
2023/08/02 06:36:38;;;;;;;4.43;1.67;;;16.70;99.90;;;;;;4995973;28;20046;-83
2023/08/02 06:39:04;;;;;;;6.85;2.72;;;16.70;99.90;;;;;;5014552;28;20041;-83
2023/08/02 06:41:30;;;;;;;9.27;2.25;;;16.70;99.90;;;;;;4997138;28;20120;-83
2023/08/02 06:43:55;;;;;;;7.25;1.95;;;16.70;99.90;;;;;;5013213;28;20121;-84
2023/08/02 06:46:21;;;;;;;5.90;2.03;;;16.70;99.90;;;;;;5013991;28;20105;-84
2023/08/02 06:48:47;;;;;;;4.50;2.22;;;16.70;99.90;;;;;;4980090;28;20045;-84
2023/08/02 06:51:12;;;;;;;6.80;2.00;;;16.60;99.90;;;;;;4996518;28;20375;-84
2023/08/02 06:53:38;;;;;;;7.68;2.55;;;16.70;99.90;;;;;;5012673;28;20022;-84
2023/08/02 06:56:13;;;;;;;5.07;1.83;;;16.70;99.90;;;;;;4995788;28;20042;-83
2023/08/02 06:58:39;;;;;;;4.82;2.40;;;16.70;99.90;;;;;;5015654;28;20489;-83
2023/08/02 07:01:15;;;;;;;7.90;2.53;;;16.70;99.90;;;;;;4997391;28;20030;-85
2023/08/02 07:03:41;;;;;;;5.03;2.10;;;16.70;99.90;;;;;;5014201;28;20025;-83
2023/08/02 07:06:11;;;;;;;5.25;2.05;;;16.80;99.90;;;;;;5014475;28;20044;-84
2023/08/02 07:08:38;;;;;;;7.82;2.50;;;16.70;99.90;;;;;;5012600;28;20148;-83
2023/08/02 07:11:04;;;;;;;6.90;2.30;;;16.80;99.90;;;;;;4997922;28;20033;-83
2023/08/02 07:13:31;;;;;;;7.43;2.33;;;16.80;99.90;;;;;;5013852;28;20466;-83
2023/08/02 07:15:57;;;;;;;5.32;2.10;;;16.80;99.90;;;;;;4997439;28;20049;-82
2023/08/02 07:18:23;;;;;;;6.07;2.25;;;16.80;99.90;;;;;;5014413;28;20125;-83
2023/08/02 07:20:48;;;;;;;4.32;1.70;;;16.80;99.90;;;;;;5013388;28;20025;-84
2023/08/02 07:23:14;;;;;;;5.25;2.20;;;16.80;99.90;;;;;;5012860;28;20029;-82
2023/08/02 07:25:40;;;;;;;6.35;1.65;;;16.80;99.90;;;;;;5011760;28;20036;-84
2023/08/02 07:28:06;;;;;;;4.43;1.92;;;16.80;99.90;;;;;;4979898;28;20050;-82
2023/08/02 07:30:32;;;;;;;5.60;1.85;;;16.80;99.90;;;;;;5013719;28;20092;-82
2023/08/02 07:32:58;;;;;;;4.03;1.55;;;16.80;99.90;;;;;;4981739;28;20482;-83
2023/08/02 07:35:24;;;;;;;3.72;1.60;;;16.80;99.90;;;;;;5013756;28;20501;-83
2023/08/02 07:37:49;;;;;;;6.13;2.20;;;16.80;99.90;;;;;;5012205;28;20030;-83
2023/08/02 07:40:15;;;;;;;3.72;1.23;;;16.90;99.90;;;;;;5011229;28;20044;-83
2023/08/02 07:42:41;;;;;;;3.30;1.40;;;16.90;99.90;;;;;;4999904;28;20026;-84
2023/08/02 07:45:11;;;;;;;5.22;1.40;;;16.90;99.90;;;;;;4996942;28;20475;-83
2023/08/02 07:47:39;;;;;;;3.47;1.23;;;17.00;99.90;;;;;;5000856;28;20153;-82
2023/08/02 07:50:05;;;;;;;2.28;1.13;;;17.00;99.90;;;;;;5002093;28;20037;-83
2023/08/02 07:52:31;;;;;;;3.72;1.20;;;17.00;99.90;;;;;;5002453;28;20032;-83
2023/08/02 07:54:57;;;;;;;3.05;1.27;;;17.00;99.90;;;;;;5003519;28;20081;-83
2023/08/02 07:57:30;;;;;;;3.08;1.10;;;17.00;99.90;;;;;;4979167;28;20319;-82
2023/08/02 07:59:57;;;;;;;2.43;1.00;;;17.10;99.90;;;;;;5003776;28;20084;-83
2023/08/02 08:02:23;;;;;;;2.35;1.00;;;17.00;99.90;;;;;;4997887;28;20050;-84
2023/08/02 08:04:48;;;;;;;3.63;0.95;;;17.00;99.90;;;;;;5000354;28;20073;-84
2023/08/02 08:07:14;;;;;;;2.28;0.90;;;17.00;99.90;;;;;;4999786;28;20111;-83
2023/08/02 08:09:40;;;;;;;3.03;1.23;;;17.10;99.90;;;;;;4988868;28;20029;-83
2023/08/02 08:12:06;;;;;;;3.22;0.90;;;17.10;99.90;;;;;;5005913;28;20032;-83
2023/08/02 08:14:33;;;;;;;2.70;0.85;;;17.20;99.90;;;;;;5004034;28;20030;-83
2023/08/02 08:16:59;;;;;;;2.03;0.70;;;17.10;99.90;;;;;;4985833;28;20041;-82
2023/08/02 08:19:26;;;;;;;3.00;0.80;;;17.10;99.90;;;;;;4979273;28;20030;-82
2023/08/02 08:21:53;;;;;;;2.60;0.90;;;17.20;99.90;;;;;;4996353;28;20030;-83
2023/08/02 08:24:18;;;;;;;1.48;0.70;;;17.20;99.90;;;;;;5004450;28;20072;-83
2023/08/02 08:26:44;;;;;;;2.78;0.70;;;17.20;99.90;;;;;;5023477;28;20037;-83
2023/08/02 08:29:10;;;;;;;2.10;0.70;;;17.30;99.90;;;;;;5004347;28;20034;-83
2023/08/02 08:31:36;;;;;;;2.17;0.75;;;17.20;99.90;;;;;;5004629;28;20492;-82
2023/08/02 08:34:02;;;;;;;1.80;0.65;;;17.30;99.90;;;;;;4996648;28;20034;-83
2023/08/02 08:36:29;;;;;;;1.67;0.50;;;17.30;99.90;;;;;;5005417;28;20509;-83
2023/08/02 08:38:55;;;;;;;2.15;0.68;;;17.40;99.90;;;;;;4992518;28;20021;-82
2023/08/02 08:41:21;;;;;;;1.10;0.40;;;17.40;99.90;;;;;;5007011;28;20038;-83
2023/08/02 08:43:47;;;;;;;1.75;0.65;;;17.50;99.90;;;;;;5024000;28;20098;-83
2023/08/02 08:46:13;;;;;;;1.08;0.55;;;17.50;99.90;;;;;;5017107;28;20029;-81
2023/08/02 08:48:39;;;;;;;3.42;0.60;;;17.50;99.90;;;;;;4999280;28;20032;-81
2023/08/02 08:51:05;;;;;;;1.35;0.60;;;17.50;99.90;;;;;;5016483;28;20112;-83
2023/08/02 08:53:36;;;;;;;1.13;0.43;;;17.50;99.90;;;;;;4999355;28;20069;-82
2023/08/02 08:56:04;;;;;;;0.90;0.43;;;17.50;99.90;;;;;;4990586;28;20048;-83
2023/08/02 08:58:32;;;;;;;1.63;0.50;;;17.50;99.90;;;;;;5006799;28;20385;-82
2023/08/02 09:00:58;;;;;;;0.95;0.40;;;17.50;99.90;;;;;;5008171;28;20026;-82
2023/08/02 09:03:24;;;;;;;1.63;0.40;;;17.50;99.90;;;;;;5008485;28;20447;-83
2023/08/02 09:05:51;;;;;;;0.80;0.40;;;17.50;99.90;;;;;;4985697;28;20026;-82
2023/08/02 09:08:17;;;;;;;1.05;0.50;;;17.50;99.90;;;;;;4982384;28;20054;-83
2023/08/02 09:10:43;;;;;;;1.38;0.40;;;17.60;99.90;;;;;;5016207;28;20030;-82
2023/08/02 09:13:26;;;;;;;0.98;0.40;;;17.60;99.90;;;;;;4998458;28;20030;-82
2023/08/02 09:16:11;;;;;;;1.38;0.40;;;17.60;99.90;;;;;;5015294;28;20049;-82
2023/08/02 09:18:49;;;;;;;1.25;0.40;;;17.60;99.90;;;;;;4997575;28;20503;-81
2023/08/02 09:21:20;;;;;;;1.52;0.63;;;17.60;99.90;;;;;;4997569;28;20467;-82
2023/08/02 09:23:57;;;;;;;0.85;0.45;;;17.60;99.90;;;;;;4997881;28;20121;-83
2023/08/02 09:26:23;;;;;;;0.70;0.30;;;17.70;99.90;;;;;;5014995;28;20026;-84
2023/08/02 09:29:14;;;;;;;0.60;0.40;;;17.80;99.90;;;;;;4981763;28;20071;-82
2023/08/02 09:31:40;;;;;;;1.33;0.60;;;17.90;99.90;;;;;;4995220;28;20517;-83
2023/08/02 09:34:06;;;;;;;1.20;0.50;;;18.00;99.90;;;;;;5014301;28;20034;-82
2023/08/02 09:36:33;;;;;;;0.90;0.50;;;18.10;99.90;;;;;;4997622;28;20038;-81
2023/08/02 09:39:18;;;;;;;2.30;0.60;;;18.20;99.90;;;;;;4998156;28;20032;-83
2023/08/02 09:41:44;;;;;;;1.20;0.63;;;18.30;99.90;;;;;;5015629;28;20022;-81
2023/08/02 09:44:19;;;;;;;1.52;0.47;;;18.40;99.90;;;;;;4981844;28;20037;-81
2023/08/02 09:46:45;;;;;;;1.05;0.50;;;18.50;99.90;;;;;;4997792;28;20022;-84
2023/08/02 09:49:19;;;;;;;1.98;0.60;;;18.60;99.90;;;;;;4996669;28;20033;-83
2023/08/02 09:51:45;;;;;;;1.00;0.60;;;18.70;99.90;;;;;;4998241;28;20037;-82
2023/08/02 09:54:14;;;;;;;1.23;0.50;;;18.80;99.90;;;;;;5015318;28;20026;-83
2023/08/02 09:56:41;;;;;;;1.42;0.60;;;19.10;99.90;;;;;;5030396;28;20128;-81
2023/08/02 09:59:07;;;;;;;1.45;0.60;;;19.40;99.90;;;;;;4997651;28;20386;-82
2023/08/02 10:01:34;;;;;;;0.95;0.50;;;19.60;99.90;;;;;;5014988;28;20025;-83
2023/08/02 10:04:06;;;;;;;1.30;0.70;;;19.90;99.90;;;;;;4981096;28;20470;-82
2023/08/02 10:06:44;;;;;;;0.95;0.50;;;20.10;99.90;;;;;;4980329;28;20030;-82
2023/08/02 10:09:14;;;;;;;1.33;0.80;;;20.30;99.90;;;;;;4978211;28;20034;-81
2023/08/02 10:12:13;;;;;;;1.42;0.70;;;20.50;99.90;;;;;;4995296;28;20030;-81
2023/08/02 10:14:40;;;;;;;0.98;0.43;;;20.60;99.90;;;;;;4995124;28;20038;-81
2023/08/02 10:17:07;;;;;;;1.20;0.75;;;20.70;99.90;;;;;;4978180;28;20054;-82
2023/08/02 10:19:34;;;;;;;1.95;0.60;;;20.80;99.90;;;;;;4977588;28;20030;-82
2023/08/02 10:22:01;;;;;;;2.67;0.70;;;20.80;99.90;;;;;;4995099;28;20037;-81
2023/08/02 10:24:27;;;;;;;3.72;0.82;;;20.80;99.90;;;;;;4991944;28;20037;-81
2023/08/02 10:27:03;;;;;;;1.25;0.70;;;20.80;99.90;;;;;;4961607;28;20034;-81
2023/08/02 10:29:31;;;;;;;1.30;0.80;;;20.90;99.90;;;;;;4996166;28;20397;-81
2023/08/02 10:31:57;;;;;;;1.75;0.73;;;21.20;99.90;;;;;;4996753;28;20103;-81
2023/08/02 10:34:35;;;;;;;1.48;0.70;;;21.40;99.90;;;;;;4972483;28;20054;-81
2023/08/02 10:37:01;;;;;;;1.70;1.00;;;21.70;99.90;;;;;;4993882;28;20077;-82
2023/08/02 10:39:45;;;;;;;1.08;0.60;;;21.80;99.90;;;;;;4995349;28;20470;-82
2023/08/02 10:42:12;;;;;;;1.15;0.55;;;22.00;99.90;;;;;;4996334;28;20033;-83
2023/08/02 10:44:37;;;;;;;1.60;0.70;;;22.30;99.90;;;;;;4995261;28;20022;-82
2023/08/02 10:47:25;;;;;;;1.90;0.60;;;22.60;99.90;;;;;;4996699;28;20053;-83
2023/08/02 10:49:52;;;;;;;0.80;0.40;;;22.80;99.90;;;;;;4995184;28;20022;-82
2023/08/02 10:52:26;;;;;;;0.70;0.40;;;22.90;99.90;;;;;;4996563;28;20470;-82
2023/08/02 10:55:16;;;;;;;1.58;0.52;;;22.90;99.90;;;;;;5014055;28;20501;-82
2023/08/02 10:57:54;;;;;;;1.80;0.50;;;22.80;99.90;;;;;;4980600;28;20022;-83
2023/08/02 11:00:25;;;;;;;2.40;0.45;;;22.80;99.90;;;;;;5013680;28;20027;-83
2023/08/02 11:02:52;;;;;;;1.20;0.57;;;22.90;99.90;;;;;;4995966;28;20069;-82
2023/08/02 11:05:38;;;;;;;0.63;0.40;;;23.20;99.90;;;;;;4980431;28;20565;-82
2023/08/02 11:08:04;;;;;;;1.05;0.47;;;23.70;99.90;;;;;;5025284;28;20041;-83
2023/08/02 11:10:30;;;;;;;0.93;0.40;;;23.90;99.90;;;;;;4983462;28;20033;-83
2023/08/02 11:12:55;;;;;;;0.50;0.30;;;24.30;99.90;;;;;;4999765;28;20026;-83
2023/08/02 11:15:22;;;;;;;0.75;0.30;;;24.60;99.90;;;;;;5015952;28;20044;-83
2023/08/02 11:17:54;;;;;;;1.48;0.45;;;24.60;98.60;;;;;;5033368;28;20065;-82
2023/08/02 11:20:25;;;;;;;0.45;0.30;;;24.40;97.10;;;;;;5000333;28;20048;-82
2023/08/02 11:22:51;;;;;;;0.55;0.32;;;24.20;97.00;;;;;;5033474;28;20421;-82
2023/08/02 11:25:21;;;;;;;0.50;0.30;;;24.00;96.60;;;;;;5015880;28;20537;-82
2023/08/02 11:27:46;;;;;;;0.30;0.20;;;23.80;96.50;;;;;;5016047;28;20025;-83
2023/08/02 11:30:12;;;;;;;0.30;0.30;;;23.50;96.40;;;;;;5015733;28;20052;-82
2023/08/02 11:32:46;;;;;;;0.40;0.25;;;23.30;96.50;;;;;;5033273;28;20034;-82
2023/08/02 11:35:19;;;;;;;0.73;0.40;;;23.10;96.50;;;;;;5012946;28;20061;-83
2023/08/02 11:37:45;;;;;;;1.33;0.43;;;22.90;96.40;;;;;;5032891;28;20037;-83
2023/08/02 11:40:11;;;;;;;1.08;0.40;;;22.60;96.60;;;;;;5014106;28;20087;-82
2023/08/02 11:42:48;;;;;;;0.95;0.40;;;22.40;96.80;;;;;;5012899;28;20134;-81
2023/08/02 11:45:26;;;;;;;1.20;0.70;;;22.20;97.20;;;;;;4998165;28;20072;-82
2023/08/02 11:47:52;;;;;;;1.35;0.70;;;22.10;97.60;;;;;;5015520;28;20111;-81
2023/08/02 11:50:24;;;;;;;1.08;0.65;;;22.00;97.90;;;;;;5014748;28;20485;-82
2023/08/02 11:52:50;;;;;;;1.17;0.70;;;21.80;98.20;;;;;;4997564;28;20022;-83
2023/08/02 11:55:17;;;;;;;1.00;0.60;;;21.70;98.50;;;;;;5015365;28;20400;-84
2023/08/02 11:57:42;;;;;;;1.88;0.75;;;21.70;98.90;;;;;;4977887;28;20036;-83
2023/08/02 12:00:09;;;;;;;2.65;0.60;;;21.60;99.30;;;;;;5013199;28;20055;-81
2023/08/02 12:02:34;;;;;;;1.25;0.70;;;21.60;99.80;;;;;;4998488;28;20026;-82
2023/08/02 12:05:05;;;;;;;1.20;0.80;;;21.70;99.90;;;;;;5000522;28;20045;-85
2023/08/02 12:07:33;;;;;;;1.45;0.50;;;22.10;99.90;;;;;;5014940;28;20144;-83
2023/08/02 12:10:01;;;;;;;0.55;0.30;;;22.90;99.90;;;;;;5032190;28;20518;-83
2023/08/02 12:12:31;;;;;;;0.98;0.43;;;23.30;99.90;;;;;;5018480;28;20044;-83
2023/08/02 12:14:58;;;;;;;1.20;0.38;;;23.60;99.90;;;;;;5013056;28;20080;-84
2023/08/02 12:17:24;;;;;;;0.40;0.10;;;23.70;99.60;;;;;;5009305;28;20045;-83
2023/08/02 12:19:52;;;;;;;1.25;0.30;;;23.70;97.70;;;;;;5016821;28;20037;-83
2023/08/02 12:22:19;;;;;;;0.40;0.20;;;23.50;97.10;;;;;;5002276;28;20038;-83
2023/08/02 12:25:02;;;;;;;3.60;0.35;;;23.50;96.90;;;;;;5017852;28;20014;-84
2023/08/02 12:27:28;;;;;;;0.75;0.40;;;23.50;97.10;;;;;;5034829;28;20061;-82
2023/08/02 12:30:10;;;;;;;0.98;0.32;;;23.80;97.60;;;;;;5001390;28;20060;-83
2023/08/02 12:32:36;;;;;;;1.85;0.50;;;24.40;98.10;;;;;;5018410;28;20052;-82
2023/08/02 12:35:09;;;;;;;2.38;0.60;;;25.30;98.20;;;;;;5016520;28;20064;-82
2023/08/02 12:37:35;;;;;;;;;;;26.00;95.60;;;;;;5019033;28;20033;-83
2023/08/02 12:40:01;;;;;;;2.08;0.35;;;26.50;94.80;;;;;;5002263;28;19915;-83
2023/08/02 12:42:27;;;;;;;2.92;0.40;;;26.70;93.80;;;;;;5018773;28;20112;-83
2023/08/02 12:44:52;;;;;;;2.35;0.50;;;26.70;92.20;;;;;;5019042;28;20516;-83
2023/08/02 12:47:18;;;;;;;3.75;0.90;;;26.90;90.80;;;;;;5018497;28;20120;-84